createdAt,value
2017-07-12T00:00:18.886Z,0
2017-07-12T00:01:20.935Z,0
2017-07-12T00:02:22.810Z,0
2017-07-12T00:03:24.843Z,0
2017-07-12T00:04:26.802Z,0
2017-07-12T00:05:29.186Z,0
2017-07-12T00:06:31.193Z,0
2017-07-12T00:07:33.194Z,0
2017-07-12T00:08:35.184Z,0
2017-07-12T00:09:37.171Z,0
2017-07-12T00:10:39.599Z,0
2017-07-12T00:11:41.540Z,0
2017-07-12T00:12:43.511Z,0
2017-07-12T00:13:45.538Z,0
2017-07-12T00:14:47.531Z,0
2017-07-12T00:15:49.968Z,0
2017-07-12T00:16:51.961Z,0
2017-07-12T00:17:53.923Z,0
2017-07-12T00:18:55.863Z,0
2017-07-12T00:19:57.820Z,0
2017-07-12T00:21:00.265Z,0
2017-07-12T00:22:02.251Z,0
2017-07-12T00:23:04.279Z,0
2017-07-12T00:24:06.269Z,0
2017-07-12T00:25:08.288Z,0
2017-07-12T00:26:10.569Z,0
2017-07-12T00:27:12.565Z,0
2017-07-12T00:28:14.624Z,0
2017-07-12T00:29:17.559Z,0
2017-07-12T00:30:19.598Z,0
2017-07-12T00:31:22.016Z,0
2017-07-12T00:32:24.020Z,0
2017-07-12T00:33:26.027Z,0
2017-07-12T00:34:28.133Z,0
2017-07-12T00:35:30.034Z,0
2017-07-12T00:36:32.383Z,0
2017-07-12T00:37:34.323Z,0
2017-07-12T00:38:36.366Z,0
2017-07-12T00:39:38.542Z,0
2017-07-12T00:40:40.527Z,0
2017-07-12T00:41:43.043Z,0
2017-07-12T00:42:44.990Z,0
2017-07-12T00:43:46.967Z,0
2017-07-12T00:44:48.933Z,0
2017-07-12T00:45:50.879Z,0
2017-07-12T00:46:53.229Z,0
2017-07-12T00:47:55.319Z,0
2017-07-12T00:48:57.302Z,0
2017-07-12T00:49:59.161Z,0
2017-07-12T00:51:01.077Z,0
2017-07-12T00:52:03.368Z,0
2017-07-12T00:53:05.367Z,0
2017-07-12T00:54:07.388Z,0
2017-07-12T00:55:09.384Z,0
2017-07-12T00:56:11.307Z,0
2017-07-12T00:57:13.700Z,0
2017-07-12T00:58:15.640Z,0
2017-07-12T00:59:17.600Z,0
2017-07-12T01:00:19.567Z,0
2017-07-12T01:01:21.561Z,0
2017-07-12T01:02:23.748Z,0
2017-07-12T01:03:25.730Z,0
2017-07-12T01:04:27.619Z,0
2017-07-12T01:05:29.532Z,0
2017-07-12T01:06:31.455Z,0
2017-07-12T01:07:33.756Z,0
2017-07-12T01:08:35.640Z,0
2017-07-12T01:09:37.636Z,0
2017-07-12T01:10:39.575Z,0
2017-07-12T01:11:41.575Z,0
2017-07-12T01:12:43.753Z,0
2017-07-12T01:13:45.721Z,0
2017-07-12T01:14:47.660Z,0
2017-07-12T01:15:49.612Z,0
2017-07-12T01:16:51.518Z,0
2017-07-12T01:17:53.880Z,0
2017-07-12T01:18:55.809Z,0
2017-07-12T01:19:57.733Z,0
2017-07-12T01:20:59.608Z,0
2017-07-12T01:22:01.559Z,0
2017-07-12T01:23:03.954Z,0
2017-07-12T01:24:06.015Z,0
2017-07-12T01:25:07.974Z,0
2017-07-12T01:26:10.058Z,0
2017-07-12T01:27:12.033Z,0
2017-07-12T01:28:14.397Z,0
2017-07-12T01:29:16.389Z,0
2017-07-12T01:30:18.251Z,0
2017-07-12T01:31:20.235Z,0
2017-07-12T01:32:22.199Z,0
2017-07-12T01:33:24.542Z,0
2017-07-12T01:34:26.506Z,0
2017-07-12T01:35:28.408Z,0
2017-07-12T01:36:30.337Z,0
2017-07-12T01:37:32.241Z,0
2017-07-12T01:38:34.660Z,0
2017-07-12T01:39:36.650Z,0
2017-07-12T01:40:38.617Z,0
2017-07-12T01:41:40.517Z,0
2017-07-12T01:42:42.505Z,0
2017-07-12T01:43:44.831Z,0
2017-07-12T01:44:47.558Z,0
2017-07-12T01:45:49.422Z,0
2017-07-12T01:46:51.401Z,0
2017-07-12T01:47:53.245Z,0
2017-07-12T01:48:55.543Z,0
2017-07-12T01:49:57.371Z,0
2017-07-12T01:50:59.376Z,0
2017-07-12T01:52:01.364Z,0
2017-07-12T01:53:03.377Z,0
2017-07-12T01:54:05.766Z,0
2017-07-12T01:55:07.656Z,0
2017-07-12T01:56:09.590Z,0
2017-07-12T01:57:11.480Z,0
2017-07-12T01:58:13.381Z,0
2017-07-12T01:59:15.736Z,0
2017-07-12T02:00:17.633Z,0
2017-07-12T02:01:19.528Z,0
2017-07-12T02:02:21.563Z,0
2017-07-12T02:03:23.485Z,0
2017-07-12T02:04:25.728Z,0
2017-07-12T02:05:27.643Z,0
2017-07-12T02:06:29.602Z,0
2017-07-12T02:07:31.601Z,0
2017-07-12T02:08:33.463Z,0
2017-07-12T02:09:36.541Z,0
2017-07-12T02:10:38.386Z,0
2017-07-12T02:11:40.366Z,0
2017-07-12T02:12:42.335Z,0
2017-07-12T02:13:44.327Z,0
2017-07-12T02:14:46.565Z,0
2017-07-12T02:15:48.539Z,0
2017-07-12T02:16:50.544Z,0
2017-07-12T02:17:52.547Z,0
2017-07-12T02:18:54.484Z,0
2017-07-12T02:19:56.824Z,0
2017-07-12T02:20:58.761Z,0
2017-07-12T02:22:00.752Z,0
2017-07-12T02:23:02.700Z,0
2017-07-12T02:24:04.688Z,0
2017-07-12T02:25:06.893Z,0
2017-07-12T02:26:08.891Z,0
2017-07-12T02:27:10.821Z,0
2017-07-12T02:28:12.796Z,0
2017-07-12T02:29:14.814Z,0
2017-07-12T02:30:17.255Z,0
2017-07-12T02:31:19.410Z,0
2017-07-12T02:32:21.506Z,0
2017-07-12T02:33:23.570Z,0
2017-07-12T02:34:25.935Z,0
2017-07-12T02:35:29.026Z,0
2017-07-12T02:36:31.417Z,0
2017-07-12T02:37:33.866Z,0
2017-07-12T02:38:36.471Z,0
2017-07-12T02:39:38.921Z,0
2017-07-12T02:40:41.845Z,0
2017-07-12T02:41:44.535Z,0
2017-07-12T02:42:46.976Z,0
2017-07-12T02:43:50.626Z,0
2017-07-12T02:44:54.129Z,0
2017-07-12T02:45:59.978Z,0
2017-07-12T02:47:05.664Z,0
2017-07-12T02:48:15.100Z,0
2017-07-12T06:27:54.570Z,324
2017-07-12T06:28:57.038Z,268
2017-07-12T06:29:58.976Z,276
2017-07-12T06:31:01.070Z,296
2017-07-12T06:32:10.474Z,320
2017-07-12T06:33:14.689Z,324
2017-07-12T06:34:17.573Z,300
2017-07-12T06:35:19.498Z,292
2017-07-12T06:36:21.461Z,336
2017-07-12T06:37:23.416Z,404
2017-07-12T06:38:29.467Z,464
2017-07-12T06:39:31.453Z,516
2017-07-12T06:40:33.310Z,524
2017-07-12T06:41:35.282Z,496
2017-07-12T06:42:37.213Z,408
2017-07-12T06:43:39.681Z,364
2017-07-12T06:44:43.028Z,368
2017-07-12T06:45:44.948Z,320
2017-07-12T06:46:46.853Z,340
2017-07-12T06:47:48.863Z,300
2017-07-12T06:48:51.115Z,280
2017-07-12T06:49:53.153Z,280
2017-07-12T06:50:55.177Z,288
2017-07-12T06:51:57.303Z,280
2017-07-12T06:52:59.340Z,364
2017-07-12T06:54:01.655Z,516
2017-07-12T06:55:03.688Z,584
2017-07-12T06:56:06.001Z,616
2017-07-12T06:57:08.319Z,552
2017-07-12T06:58:10.244Z,492
2017-07-12T06:59:12.548Z,396
2017-07-12T07:01:11.930Z,492
2017-07-12T07:02:31.464Z,524
2017-07-12T07:03:37.942Z,476
2017-07-12T07:04:40.341Z,516
2017-07-12T07:05:42.464Z,512
2017-07-12T07:06:44.771Z,588
2017-07-12T07:07:55.661Z,800
2017-07-12T07:09:07.212Z,1040
2017-07-12T07:10:09.513Z,1224
2017-07-12T07:11:14.029Z,1216
2017-07-12T07:12:15.957Z,1168
2017-07-12T07:13:17.910Z,1160
2017-07-12T07:14:19.816Z,1068
2017-07-12T07:15:22.032Z,1044
2017-07-12T07:16:23.942Z,776
2017-07-12T07:17:26.428Z,616
2017-07-12T07:18:28.380Z,624
2017-07-12T07:19:30.292Z,580
2017-07-12T07:20:32.507Z,560
2017-07-12T07:21:35.992Z,928
2017-07-12T07:22:38.166Z,1148
2017-07-12T07:23:40.291Z,1396
2017-07-12T07:24:42.302Z,1616
2017-07-12T07:25:45.745Z,1768
2017-07-12T07:26:47.809Z,1856
2017-07-12T07:27:49.759Z,1944
2017-07-12T07:28:51.660Z,1860
2017-07-12T07:29:55.178Z,1744
2017-07-12T07:30:57.520Z,1608
2017-07-12T07:31:59.544Z,1504
2017-07-12T07:33:01.404Z,1492
2017-07-12T07:34:04.262Z,1516
2017-07-12T07:35:06.200Z,1552
2017-07-12T07:36:09.626Z,1584
2017-07-12T07:37:11.604Z,1620
2017-07-12T07:38:14.924Z,1604
2017-07-12T07:39:17.421Z,1512
2017-07-12T07:40:20.238Z,1360
2017-07-12T07:41:22.943Z,1232
2017-07-12T07:42:25.457Z,1152
2017-07-12T07:43:28.517Z,1180
2017-07-12T07:44:30.666Z,1356
2017-07-12T07:45:32.973Z,1388
2017-07-12T07:46:36.644Z,1392
2017-07-12T07:47:38.784Z,1364
2017-07-12T07:48:40.817Z,1252
2017-07-12T07:49:42.982Z,1116
2017-07-12T07:50:45.106Z,976
2017-07-12T07:51:47.440Z,980
2017-07-12T07:52:49.435Z,964
2017-07-12T07:53:51.534Z,1056
2017-07-12T07:54:53.477Z,1028
2017-07-12T07:55:55.568Z,1032
2017-07-12T07:56:57.994Z,1024
2017-07-12T07:58:00.158Z,1032
2017-07-12T07:59:02.155Z,924
2017-07-12T08:00:04.380Z,1012
2017-07-12T08:01:06.744Z,1000
2017-07-12T08:02:10.679Z,1144
2017-07-12T08:03:12.542Z,996
2017-07-12T08:04:14.719Z,928
2017-07-12T08:05:16.999Z,912
2017-07-12T08:06:19.274Z,656
2017-07-12T08:07:21.810Z,588
2017-07-12T08:08:24.520Z,648
2017-07-12T08:09:26.595Z,604
2017-07-12T08:10:28.574Z,552
2017-07-12T08:11:30.660Z,500
2017-07-12T08:12:33.039Z,716
2017-07-12T08:13:35.085Z,836
2017-07-12T08:14:37.157Z,1112
2017-07-12T08:15:40.879Z,1320
2017-07-12T08:16:42.934Z,1268
2017-07-12T08:17:45.315Z,1544
2017-07-12T08:18:47.549Z,1516
2017-07-12T08:19:49.450Z,1228
2017-07-12T08:20:56.410Z,1196
2017-07-12T08:41:26.099Z,1172
2017-07-12T08:42:28.118Z,1184
2017-07-12T08:43:30.081Z,1216
2017-07-12T08:44:32.057Z,1152
2017-07-12T08:45:34.029Z,1064
2017-07-12T08:46:36.366Z,936
2017-07-12T08:47:38.304Z,804
2017-07-12T08:48:40.322Z,908
2017-07-12T08:49:42.270Z,1216
2017-07-12T08:50:44.350Z,1148
2017-07-12T08:51:46.799Z,1036
2017-07-12T08:52:48.783Z,1072
2017-07-12T08:53:50.862Z,1116
2017-07-12T08:54:52.889Z,1112
2017-07-12T08:55:54.893Z,928
2017-07-12T08:56:57.234Z,828
2017-07-12T08:58:00.003Z,904
2017-07-12T08:59:03.089Z,904
2017-07-12T09:00:06.052Z,948
2017-07-12T09:01:10.118Z,936
2017-07-12T09:02:17.645Z,944
2017-07-12T09:03:19.655Z,816
2017-07-12T09:04:21.943Z,788
2017-07-12T09:05:27.569Z,764
2017-07-12T09:06:29.498Z,908
2017-07-12T09:07:33.085Z,944
2017-07-12T09:08:35.318Z,1096
2017-07-12T09:09:43.173Z,1204
2017-07-12T09:10:45.258Z,1104
2017-07-12T09:11:49.457Z,1400
2017-07-12T09:12:57.944Z,1444
2017-07-12T09:14:05.969Z,1740
2017-07-12T09:15:14.234Z,1764
2017-07-12T10:18:18.732Z,456
2017-07-12T10:19:20.829Z,616
2017-07-12T10:20:26.522Z,588
2017-07-12T10:21:29.846Z,616
2017-07-12T10:22:32.413Z,528
2017-07-12T10:23:48.540Z,504
2017-07-12T10:31:15.242Z,576
2017-07-12T10:32:20.515Z,564
2017-07-12T10:33:22.630Z,532
2017-07-12T10:34:31.435Z,564
2017-07-12T10:38:30.948Z,392
2017-07-12T10:39:42.203Z,360
2017-07-12T10:40:44.920Z,396
2017-07-12T10:41:49.599Z,396
2017-07-12T10:42:52.264Z,380
2017-07-12T10:43:57.428Z,364
2017-07-12T10:45:00.760Z,292
2017-07-12T10:46:09.698Z,200
2017-07-12T10:47:15.715Z,200
2017-07-12T10:48:17.966Z,320
2017-07-12T10:49:23.118Z,428
2017-07-12T10:50:28.045Z,576
2017-07-12T10:51:41.780Z,668
2017-07-12T10:52:44.009Z,672
2017-07-12T10:53:49.452Z,808
2017-07-12T10:54:51.951Z,896
2017-07-12T10:55:54.054Z,1028
2017-07-12T10:57:06.376Z,1036
2017-07-12T10:58:08.738Z,1000
2017-07-12T10:59:15.477Z,912
2017-07-12T11:00:18.102Z,884
2017-07-12T11:01:20.972Z,928
2017-07-12T11:02:23.243Z,984
2017-07-12T11:03:25.653Z,1108
2017-07-12T11:04:28.096Z,1256
2017-07-12T11:05:30.536Z,1404
2017-07-12T11:06:33.787Z,1468
2017-07-12T11:07:36.526Z,1576
2017-07-12T11:08:39.330Z,1716
2017-07-12T11:16:57.903Z,1944
2017-07-12T11:18:00.108Z,2104
2017-07-12T11:19:02.339Z,1936
2017-07-12T11:20:04.897Z,1860
2017-07-12T11:21:08.120Z,2040
2017-07-12T11:22:10.850Z,2052
2017-07-12T11:23:13.035Z,1760
2017-07-12T11:24:14.886Z,1820
2017-07-12T11:25:16.751Z,1716
2017-07-12T11:26:19.706Z,1756
2017-07-12T11:27:22.163Z,1604
2017-07-12T11:28:24.082Z,1668
2017-07-12T11:29:26.228Z,1472
2017-07-12T11:30:28.251Z,1776
2017-07-12T11:31:30.393Z,1568
2017-07-12T11:32:32.671Z,1644
2017-07-12T11:33:34.620Z,1644
2017-07-12T11:34:36.574Z,1748
2017-07-12T11:35:38.689Z,1772
2017-07-12T11:36:41.751Z,1768
2017-07-12T11:37:44.042Z,1808
2017-07-12T11:38:46.665Z,1820
2017-07-12T11:39:48.657Z,1964
2017-07-12T11:40:50.608Z,1852
2017-07-12T11:41:53.959Z,1828
2017-07-12T11:42:57.709Z,2252
2017-07-12T11:44:00.545Z,2208
2017-07-12T11:45:02.899Z,2780
2017-07-12T11:46:09.191Z,2468
2017-07-12T11:47:27.538Z,2680
2017-07-12T12:07:04.022Z,1256
2017-07-12T12:08:06.057Z,1708
2017-07-12T12:09:08.329Z,1348
2017-07-12T12:10:12.231Z,1212
2017-07-12T12:11:15.650Z,2132
2017-07-12T12:12:18.232Z,2240
2017-07-12T12:13:21.851Z,1740
2017-07-12T12:14:40.107Z,1468
2017-07-12T12:15:43.758Z,2000
2017-07-12T12:16:45.744Z,1808
2017-07-12T12:17:49.414Z,1932
2017-07-12T12:18:51.350Z,1384
2017-07-12T12:19:53.286Z,1712
2017-07-12T12:20:55.288Z,1884
2017-07-12T12:21:57.255Z,1792
2017-07-12T12:22:59.735Z,1856
2017-07-12T12:24:01.784Z,1712
2017-07-12T12:25:05.552Z,1740
2017-07-12T12:26:08.709Z,1712
2017-07-12T12:27:13.800Z,1668
2017-07-12T12:28:15.985Z,1620
2017-07-12T12:29:18.346Z,1600
2017-07-12T12:30:21.288Z,1508
2017-07-12T12:31:22.949Z,1488
2017-07-12T12:32:24.913Z,1464
2017-07-12T12:33:27.545Z,1404
2017-07-12T12:34:29.501Z,1360
2017-07-12T12:35:31.729Z,1328
2017-07-12T12:36:35.095Z,1232
2017-07-12T12:37:38.197Z,1128
2017-07-12T12:38:41.234Z,1148
2017-07-12T12:39:46.299Z,1136
2017-07-12T12:40:49.340Z,1128
2017-07-12T12:41:52.515Z,1140
2017-07-12T12:42:54.525Z,1132
2017-07-12T12:43:57.058Z,1188
2017-07-12T12:44:59.642Z,1192
2017-07-12T12:46:01.579Z,1284
2017-07-12T12:47:03.570Z,1312
2017-07-12T12:48:05.592Z,1316
2017-07-12T12:49:08.220Z,1332
2017-07-12T12:50:10.194Z,1420
2017-07-12T12:51:12.171Z,1392
2017-07-12T12:52:14.263Z,1376
2017-07-12T12:53:16.304Z,1364
2017-07-12T12:54:18.619Z,1396
2017-07-12T12:55:20.752Z,1412
2017-07-12T12:56:22.746Z,1440
2017-07-12T12:57:24.693Z,1428
2017-07-12T12:58:27.772Z,1556
2017-07-12T12:59:30.047Z,1592
2017-07-12T13:00:33.673Z,1432
2017-07-12T13:01:35.641Z,1492
2017-07-12T13:02:39.510Z,1444
2017-07-12T13:03:41.568Z,1332
2017-07-12T13:04:44.478Z,1324
2017-07-12T13:05:46.500Z,1384
2017-07-12T13:06:48.536Z,1288
2017-07-12T13:07:51.759Z,1056
2017-07-12T13:14:07.908Z,1288
2017-07-12T13:15:14.446Z,1252
2017-07-12T13:16:17.094Z,1280
2017-07-12T13:17:19.102Z,1332
2017-07-12T13:18:23.597Z,1420
2017-07-12T13:19:27.031Z,1352
2017-07-12T13:20:30.880Z,1280
2017-07-12T13:24:49.190Z,1096
2017-07-12T13:25:51.920Z,984
2017-07-12T13:27:00.818Z,964
2017-07-12T13:28:02.976Z,912
2017-07-12T13:29:09.184Z,896
2017-07-12T13:34:30.879Z,748
2017-07-12T13:52:22.809Z,576
2017-07-12T13:53:25.002Z,556
2017-07-12T13:54:27.015Z,556
2017-07-12T13:55:29.083Z,580
2017-07-12T13:56:33.682Z,576
2017-07-12T13:57:41.187Z,568
2017-07-12T13:58:43.860Z,576
2017-07-12T13:59:47.265Z,524
2017-07-12T14:00:54.566Z,416
2017-07-12T14:01:57.474Z,532
2017-07-12T14:03:01.574Z,556
2017-07-12T14:04:03.625Z,468
2017-07-12T14:05:05.727Z,528
2017-07-12T14:06:08.170Z,532
2017-07-12T14:07:10.958Z,544
2017-07-12T14:08:12.974Z,580
2017-07-12T14:09:15.328Z,604
2017-07-12T14:10:18.059Z,608
2017-07-12T14:11:20.042Z,636
2017-07-12T14:12:22.490Z,616
2017-07-12T14:13:26.635Z,564
2017-07-12T14:14:28.763Z,628
2017-07-12T14:15:31.991Z,632
2017-07-12T14:16:34.134Z,604
2017-07-12T14:17:36.695Z,556
2017-07-12T14:18:39.701Z,452
2017-07-12T14:19:41.919Z,296
2017-07-12T14:20:44.585Z,404
2017-07-12T14:21:46.638Z,504
2017-07-12T14:22:49.604Z,536
2017-07-12T14:23:51.804Z,368
2017-07-12T14:24:55.216Z,372
2017-07-12T14:25:57.521Z,428
2017-07-12T14:27:02.835Z,392
2017-07-12T14:28:05.906Z,320
2017-07-12T14:29:08.863Z,332
2017-07-12T14:30:11.784Z,436
2017-07-12T14:31:14.337Z,524
2017-07-12T14:32:16.626Z,840
2017-07-12T14:33:19.614Z,932
2017-07-12T14:34:21.684Z,828
2017-07-12T14:35:23.680Z,832
2017-07-12T14:36:27.312Z,1376
2017-07-12T14:37:29.318Z,1544
2017-07-12T14:38:32.290Z,1272
2017-07-12T14:39:34.882Z,1028
2017-07-12T14:40:37.371Z,1260
2017-07-12T14:41:39.579Z,1384
2017-07-12T14:42:41.987Z,840
2017-07-12T14:43:44.128Z,1120
2017-07-12T14:44:46.537Z,1716
2017-07-12T14:45:50.252Z,1692
2017-07-12T14:46:53.585Z,1436
2017-07-12T14:47:55.826Z,1816
2017-07-12T14:49:01.712Z,1440
2017-07-12T14:50:06.361Z,1260
2017-07-12T14:51:08.229Z,1408
2017-07-12T14:52:13.460Z,1780
2017-07-12T14:53:16.132Z,2068
2017-07-12T14:54:20.031Z,2280
2017-07-12T14:59:15.543Z,2184
2017-07-12T15:00:30.404Z,1784
2017-07-12T15:01:32.581Z,1044
2017-07-12T15:09:16.212Z,292
2017-07-12T15:10:18.827Z,284
2017-07-12T15:11:44.299Z,340
2017-07-12T15:12:49.883Z,572
2017-07-12T15:14:09.707Z,616
2017-07-12T15:17:01.067Z,1200
2017-07-12T15:18:06.890Z,904
2017-07-12T15:19:09.269Z,1016
2017-07-12T15:20:13.277Z,1112
2017-07-12T15:21:15.919Z,1240
2017-07-12T15:22:20.643Z,996
2017-07-12T15:23:23.334Z,1064
2017-07-12T15:24:25.401Z,936
2017-07-12T15:25:28.940Z,1100
2017-07-12T15:26:31.375Z,1840
2017-07-12T15:27:36.037Z,2224
2017-07-12T15:28:40.556Z,2276
2017-07-12T15:29:43.067Z,1644
2017-07-12T15:30:46.244Z,2244
2017-07-12T15:31:48.822Z,2100
2017-07-12T15:32:51.088Z,2132
2017-07-12T15:33:53.653Z,2184
2017-07-12T15:34:58.688Z,1740
2017-07-12T15:36:01.491Z,1940
2017-07-12T15:37:05.603Z,1648
2017-07-12T15:38:09.156Z,1180
2017-07-12T15:39:15.533Z,1024
2017-07-12T15:40:17.926Z,1052
2017-07-12T15:41:20.743Z,976
2017-07-12T15:42:23.382Z,944
2017-07-12T15:43:25.709Z,724
2017-07-12T15:44:29.439Z,656
2017-07-12T15:45:32.569Z,1024
2017-07-12T15:46:35.840Z,776
2017-07-12T15:47:38.622Z,760
2017-07-12T15:48:40.847Z,708
2017-07-12T15:49:43.100Z,788
2017-07-12T15:50:46.450Z,772
2017-07-12T15:51:50.636Z,776
2017-07-12T15:52:53.870Z,748
2017-07-12T15:53:56.524Z,1000
2017-07-12T15:55:00.343Z,1324
2017-07-12T15:56:02.774Z,1332
2017-07-12T15:57:06.011Z,1292
2017-07-12T15:58:09.293Z,1084
2017-07-12T15:59:11.569Z,1948
2017-07-12T16:00:13.776Z,2336
2017-07-12T16:01:16.259Z,2640
2017-07-12T16:02:20.871Z,2900
2017-07-12T16:03:25.412Z,2388
2017-07-12T16:04:27.601Z,2420
2017-07-12T16:05:30.251Z,2084
2017-07-12T16:06:32.387Z,1872
2017-07-12T16:07:35.449Z,1664
2017-07-12T16:08:37.312Z,1416
2017-07-12T16:09:40.492Z,1472
2017-07-12T16:10:44.915Z,1044
2017-07-12T16:11:51.358Z,744
2017-07-12T16:12:53.566Z,640
2017-07-12T16:13:56.413Z,696
2017-07-12T16:15:00.988Z,636
2017-07-12T16:16:04.425Z,484
2017-07-12T16:17:06.309Z,536
2017-07-12T16:18:08.528Z,348
2017-07-12T16:19:10.971Z,328
2017-07-12T16:20:13.818Z,372
2017-07-12T16:21:16.026Z,460
2017-07-12T16:22:18.049Z,536
2017-07-12T16:23:19.741Z,484
2017-07-12T16:24:21.832Z,520
2017-07-12T16:25:24.704Z,540
2017-07-12T16:26:29.733Z,568
2017-07-12T16:27:33.153Z,584
2017-07-12T16:28:38.511Z,636
2017-07-12T16:29:40.299Z,840
2017-07-12T16:30:42.337Z,1776
2017-07-12T16:31:44.292Z,1732
2017-07-12T16:32:47.079Z,1856
2017-07-12T16:33:49.990Z,2584
2017-07-12T16:34:55.100Z,2708
2017-07-12T16:36:00.632Z,2736
2017-07-12T16:37:02.760Z,2048
2017-07-12T16:38:06.633Z,2004
2017-07-12T16:39:09.389Z,1884
2017-07-12T16:40:11.733Z,2216
2017-07-12T16:41:15.803Z,2516
2017-07-12T16:42:19.247Z,3304
2017-07-12T16:43:21.263Z,3272
2017-07-12T16:44:23.432Z,2024
2017-07-12T16:45:28.468Z,1908
2017-07-12T16:46:30.517Z,1516
2017-07-12T16:47:32.744Z,1492
2017-07-12T16:48:34.697Z,1568
2017-07-12T16:49:37.143Z,1548
2017-07-12T16:50:40.440Z,1980
2017-07-12T16:51:42.445Z,1780
2017-07-12T16:52:45.054Z,1940
2017-07-12T16:53:46.896Z,1756
2017-07-12T16:54:48.988Z,1936
2017-07-12T16:55:50.970Z,1416
2017-07-12T16:56:53.029Z,1512
2017-07-12T16:57:55.844Z,1728
2017-07-12T16:58:57.713Z,1552
2017-07-12T16:59:59.546Z,1380
2017-07-12T17:01:02.281Z,1332
2017-07-12T17:02:05.206Z,1684
2017-07-12T17:03:08.437Z,1596
2017-07-12T17:04:10.691Z,1468
2017-07-12T17:05:12.706Z,1364
2017-07-12T17:06:14.643Z,1376
2017-07-12T17:07:16.643Z,1320
2017-07-12T17:08:19.775Z,1452
2017-07-12T17:09:23.310Z,1420
2017-07-12T17:10:25.221Z,1568
2017-07-12T17:11:27.030Z,1680
2017-07-12T17:12:29.399Z,1764
2017-07-12T17:13:31.904Z,1880
2017-07-12T17:14:33.751Z,1788
2017-07-12T17:15:36.012Z,1804
2017-07-12T17:16:37.849Z,1776
2017-07-12T17:17:41.612Z,1988
2017-07-12T17:18:44.069Z,1900
2017-07-12T17:19:46.083Z,1832
2017-07-12T17:20:48.145Z,1784
2017-07-12T17:21:50.087Z,1440
2017-07-12T17:22:52.083Z,1152
2017-07-12T17:23:54.367Z,924
2017-07-12T17:24:56.733Z,832
2017-07-12T17:25:58.916Z,860
2017-07-12T17:27:01.036Z,872
2017-07-12T17:28:03.061Z,780
2017-07-12T17:29:05.311Z,620
2017-07-12T17:30:07.258Z,524
2017-07-12T17:31:09.294Z,552
2017-07-12T17:32:11.809Z,576
2017-07-12T17:33:13.795Z,620
2017-07-12T17:34:16.010Z,600
2017-07-12T17:35:18.508Z,576
2017-07-12T17:36:20.574Z,488
2017-07-12T17:37:22.670Z,448
2017-07-12T17:38:24.649Z,496
2017-07-12T17:39:27.055Z,572
2017-07-12T17:40:31.597Z,628
2017-07-12T17:41:33.511Z,432
2017-07-12T17:42:35.487Z,436
2017-07-12T17:43:37.497Z,436
2017-07-12T17:44:39.840Z,672
2017-07-12T17:45:41.848Z,744
2017-07-12T17:46:44.075Z,848
2017-07-12T17:47:46.024Z,920
2017-07-12T17:48:48.169Z,1132
2017-07-12T17:49:50.642Z,1040
2017-07-12T17:50:52.723Z,672
2017-07-12T17:51:55.409Z,920
2017-07-12T17:52:57.434Z,1732
2017-07-12T17:54:00.628Z,5436
2017-07-12T17:55:02.899Z,6252
2017-07-12T17:56:06.152Z,1744
2017-07-12T17:57:13.644Z,2244
2017-07-12T17:58:15.720Z,1808
2017-07-12T17:59:17.809Z,2508
2017-07-12T18:00:20.146Z,3096
2017-07-12T18:01:22.170Z,3316
2017-07-12T18:02:24.318Z,4300
2017-07-12T18:03:26.135Z,5064
2017-07-12T18:04:28.197Z,4704
2017-07-12T18:05:30.786Z,4584
2017-07-12T18:06:32.810Z,944
2017-07-12T18:07:34.823Z,960
2017-07-12T18:08:37.065Z,9692
2017-07-12T18:09:39.040Z,10848
2017-07-12T18:10:41.394Z,11680
2017-07-12T18:11:43.442Z,9696
2017-07-12T18:12:46.674Z,7444
2017-07-12T18:13:48.496Z,5604
2017-07-12T18:14:50.379Z,6456
2017-07-12T18:15:52.830Z,9012
2017-07-12T18:16:54.740Z,7568
2017-07-12T18:17:56.752Z,6512
2017-07-12T18:18:58.753Z,6428
2017-07-12T18:20:00.507Z,5872
2017-07-12T18:21:02.698Z,4488
2017-07-12T18:22:04.816Z,4196
2017-07-12T18:23:07.015Z,2980
2017-07-12T18:24:13.304Z,2624
2017-07-12T18:25:16.243Z,2048
2017-07-12T18:26:18.513Z,1872
2017-07-12T18:27:20.506Z,1620
2017-07-12T18:28:24.349Z,1588
2017-07-12T18:29:26.655Z,1512
2017-07-12T18:30:28.655Z,1220
2017-07-12T18:31:31.007Z,1224
2017-07-12T18:32:32.898Z,1212
2017-07-12T18:33:34.698Z,1080
2017-07-12T18:34:36.678Z,1092
2017-07-12T18:35:38.717Z,932
2017-07-12T18:36:41.030Z,916
2017-07-12T18:37:43.131Z,1024
2017-07-12T18:38:46.270Z,952
2017-07-12T18:39:47.971Z,1048
2017-07-12T18:40:49.995Z,912
2017-07-12T18:41:52.441Z,888
2017-07-12T18:42:54.367Z,912
2017-07-12T18:43:57.510Z,772
2017-07-12T18:44:59.573Z,756
2017-07-12T18:46:01.450Z,748
2017-07-12T18:47:03.797Z,696
2017-07-12T18:48:05.734Z,644
2017-07-12T18:49:07.716Z,540
2017-07-12T18:50:09.755Z,540
2017-07-12T18:51:11.723Z,508
2017-07-12T18:52:14.215Z,564
2017-07-12T18:53:16.183Z,592
2017-07-12T18:54:18.054Z,548
2017-07-12T18:55:19.919Z,524
2017-07-12T18:56:21.998Z,500
2017-07-12T18:57:24.510Z,508
2017-07-12T18:58:26.268Z,488
2017-07-12T18:59:28.157Z,516
2017-07-12T19:00:30.065Z,456
2017-07-12T19:01:31.925Z,452
2017-07-12T19:02:34.296Z,464
2017-07-12T19:03:36.312Z,460
2017-07-12T19:04:39.214Z,472
2017-07-12T19:05:41.208Z,436
2017-07-12T19:06:43.239Z,436
2017-07-12T19:07:45.388Z,428
2017-07-12T19:08:47.354Z,436
2017-07-12T19:09:49.254Z,436
2017-07-12T19:10:51.277Z,424
2017-07-12T19:11:53.182Z,392
2017-07-12T19:12:55.773Z,396
2017-07-12T19:13:57.732Z,316
2017-07-12T19:14:59.680Z,292
2017-07-12T19:16:01.603Z,284
2017-07-12T19:17:03.699Z,244
2017-07-12T19:18:06.230Z,228
2017-07-12T19:19:08.145Z,216
2017-07-12T19:20:10.048Z,212
2017-07-12T19:21:11.893Z,200
2017-07-12T19:22:13.843Z,188
2017-07-12T19:23:16.285Z,180
2017-07-12T19:24:18.173Z,168
2017-07-12T19:25:20.097Z,160
2017-07-12T19:26:22.112Z,152
2017-07-12T19:27:24.110Z,144
2017-07-12T19:28:26.166Z,140
2017-07-12T19:29:28.107Z,128
2017-07-12T19:30:30.050Z,124
2017-07-12T19:31:31.990Z,116
2017-07-12T19:32:34.110Z,112
2017-07-12T19:33:36.533Z,104
2017-07-12T19:34:39.048Z,96
2017-07-12T19:35:43.220Z,92
2017-07-12T19:36:45.291Z,84
2017-07-12T19:37:49.013Z,80
2017-07-12T19:38:51.242Z,76
2017-07-12T19:39:53.290Z,72
2017-07-12T19:40:55.273Z,64
2017-07-12T19:41:59.195Z,60
2017-07-12T19:43:01.300Z,60
2017-07-12T19:44:05.021Z,52
2017-07-12T19:45:07.071Z,48
2017-07-12T19:46:10.841Z,48
2017-07-12T19:47:12.859Z,44
2017-07-12T19:48:18.551Z,40
2017-07-12T19:49:20.706Z,36
2017-07-12T19:50:22.682Z,32
2017-07-12T19:51:24.588Z,28
2017-07-12T19:52:29.572Z,28
2017-07-12T19:53:31.417Z,24
2017-07-12T19:54:33.714Z,24
2017-07-12T19:55:35.628Z,20
2017-07-12T19:56:40.148Z,16
2017-07-12T19:57:42.059Z,16
2017-07-12T19:58:45.909Z,16
2017-07-12T19:59:48.508Z,12
2017-07-12T20:00:50.531Z,12
2017-07-12T20:01:52.534Z,8
2017-07-12T20:02:55.592Z,8
2017-07-12T20:03:57.859Z,12
2017-07-12T20:05:00.234Z,8
2017-07-12T20:06:02.308Z,8
2017-07-12T20:07:05.920Z,4
2017-07-12T20:08:08.035Z,4
2017-07-12T20:09:11.815Z,4
2017-07-12T20:10:14.306Z,4
2017-07-12T20:11:16.366Z,4
2017-07-12T20:12:18.364Z,4
2017-07-12T20:13:20.419Z,0
2017-07-12T20:14:22.511Z,4
2017-07-12T20:15:25.777Z,0
2017-07-12T20:16:27.866Z,4
2017-07-12T20:17:31.646Z,0
2017-07-12T20:18:33.636Z,0
2017-07-12T20:19:37.460Z,4
2017-07-12T20:20:39.854Z,4
2017-07-12T20:21:41.891Z,0
2017-07-12T20:22:44.278Z,0
2017-07-12T20:23:46.251Z,0
2017-07-12T20:24:49.234Z,0
2017-07-12T20:25:51.712Z,0
2017-07-12T20:26:53.796Z,0
2017-07-12T20:27:56.195Z,0
2017-07-12T20:28:58.480Z,0
2017-07-12T20:30:01.427Z,0
2017-07-12T20:31:03.839Z,0
2017-07-12T20:32:06.417Z,0
2017-07-12T20:33:08.682Z,0
2017-07-12T20:34:11.156Z,0
2017-07-12T20:35:13.394Z,0
2017-07-12T20:36:16.019Z,0
2017-07-12T20:37:18.840Z,0
2017-07-12T20:38:21.007Z,0
2017-07-12T20:39:23.130Z,0
2017-07-12T20:40:26.914Z,0
2017-07-12T20:41:29.992Z,0
2017-07-12T20:42:32.043Z,0
2017-07-12T20:43:34.487Z,0
2017-07-12T20:44:37.835Z,0
2017-07-12T20:45:43.731Z,0
2017-07-12T20:46:46.895Z,0